Time;durP1;ratioP1;P1;durP2;ratioP2;P2;SDS_P1;SDS_P2;PMS_P1;PMS_P2;Temp;Humidity;BMP_temperature;BMP_pressure;BME280_temperature;BME280_humidity;BME280_pressure;Samples;Min_cycle;Max_cycle;Signal;HPM_P1;HPM_P2
2022/03/05 00:00:12;;;;;;;;;;;20.50;40.20;;;;;;678483;29;1177;-88
2022/03/05 00:00:33;;;;;;;;;;;21.30;39.20;;;;;;677886;29;1183;-87
2022/03/05 00:00:54;;;;;;;;;;;21.30;40.50;;;;;;675709;29;1195;-88
2022/03/05 00:01:15;;;;;;;;;;;21.30;40.20;;;;;;677797;29;1310;-87
2022/03/05 00:01:35;;;;;;;;;;;21.30;40.70;;;;;;678272;29;1086;-88
2022/03/05 00:01:56;;;;;;;;;;;21.20;39.90;;;;;;680751;29;1425;-88
2022/03/05 00:02:18;;;;;;;;;;;21.30;40.10;;;;;;683178;28;1209;-88
2022/03/05 00:02:39;;;;;;;;;;;21.30;39.30;;;;;;683028;29;1099;-87
2022/03/05 00:03:00;;;;;;;;;;;21.30;40.40;;;;;;683262;28;1346;-88
2022/03/05 00:03:20;;;;;;;;;;;21.30;39.30;;;;;;683046;29;1112;-88
2022/03/05 00:03:41;;;;;;;;;;;21.30;39.80;;;;;;680361;29;1191;-88
2022/03/05 00:04:02;;;;;;;;;;;21.30;39.90;;;;;;677679;29;1372;-88
2022/03/05 00:04:22;;;;;;;;;;;21.30;39.30;;;;;;677981;29;1283;-89
2022/03/05 00:04:43;;;;;;;;;;;21.30;39.40;;;;;;678005;29;1511;-88
2022/03/05 00:05:04;;;;;;;;;;;21.30;40.30;;;;;;680725;29;1362;-88
2022/03/05 00:05:25;;;;;;;;;;;21.30;39.30;;;;;;682979;29;1242;-88
2022/03/05 00:05:46;;;;;;;;;;;21.30;39.60;;;;;;683006;29;1910;-87
2022/03/05 00:06:06;;;;;;;;;;;21.30;39.50;;;;;;680478;29;1174;-88
2022/03/05 00:06:27;;;;;;;;;;;21.30;40.20;;;;;;677882;29;1286;-87
2022/03/05 00:06:49;;;;;;;;;;;21.30;39.40;;;;;;675517;29;1410;-88
2022/03/05 00:07:10;;;;;;;;;;;21.30;39.50;;;;;;677460;29;1092;-88
2022/03/05 00:07:30;;;;;;;;;;;21.30;41.20;;;;;;678319;29;1277;-89
2022/03/05 00:07:51;;;;;;;;;;;20.60;39.30;;;;;;681008;29;1191;-88
2022/03/05 00:08:12;;;;;;;;;;;21.30;43.00;;;;;;683641;28;1178;-88
2022/03/05 00:08:32;;;;;;;;;;;21.30;39.50;;;;;;683201;29;1270;-90
2022/03/05 00:08:53;;;;;;;;;;;21.30;40.00;;;;;;683141;29;1286;-88
2022/03/05 00:09:13;;;;;;;;;;;21.20;39.70;;;;;;683064;28;1520;-88
2022/03/05 00:09:34;;;;;;;;;;;21.30;40.10;;;;;;682856;29;1260;-88
2022/03/05 00:09:54;;;;;;;;;;;21.30;40.30;;;;;;680178;29;1361;-89
2022/03/05 00:10:15;;;;;;;;;;;21.20;39.80;;;;;;680268;29;1247;-88
2022/03/05 00:10:36;;;;;;;;;;;21.30;40.00;;;;;;680402;29;1236;-88
2022/03/05 00:10:57;;;;;;;;;;;21.20;39.30;;;;;;678246;29;789;-88
2022/03/05 00:11:17;;;;;;;;;;;21.30;39.80;;;;;;680345;29;1104;-88
2022/03/05 00:11:39;;;;;;;;;;;21.30;40.20;;;;;;680786;29;1233;-88
2022/03/05 00:11:59;;;;;;;;;;;21.30;39.70;;;;;;683528;28;1223;-89
2022/03/05 00:12:20;;;;;;;;;;;21.30;39.30;;;;;;683014;29;1325;-89
2022/03/05 00:12:40;;;;;;;;;;;21.30;39.70;;;;;;680427;29;1278;-88
2022/03/05 00:13:01;;;;;;;;;;;21.30;39.20;;;;;;677802;29;1417;-89
2022/03/05 00:13:21;;;;;;;;;;;21.20;40.50;;;;;;677887;29;1084;-88
2022/03/05 00:13:42;;;;;;;;;;;21.30;39.80;;;;;;677738;29;1226;-88
2022/03/05 00:14:03;;;;;;;;;;;21.30;41.30;;;;;;677874;29;1341;-88
2022/03/05 00:14:25;;;;;;;;;;;21.20;40.50;;;;;;680775;29;1183;-88
2022/03/05 00:14:45;;;;;;;;;;;21.20;40.10;;;;;;680832;29;1120;-88
2022/03/05 00:15:06;;;;;;;;;;;21.30;40.30;;;;;;680520;29;1122;-89
2022/03/05 00:15:28;;;;;;;;;;;21.20;39.70;;;;;;680477;29;1605;-88
2022/03/05 00:15:48;;;;;;;;;;;22.40;40.50;;;;;;677826;29;1223;-87
2022/03/05 00:16:09;;;;;;;;;;;21.20;39.70;;;;;;675872;29;1206;-88
2022/03/05 00:16:29;;;;;;;;;;;21.20;39.60;;;;;;678194;29;1321;-88
2022/03/05 00:16:50;;;;;;;;;;;21.30;39.10;;;;;;680449;29;1197;-89
2022/03/05 00:17:11;;;;;;;;;;;21.20;39.80;;;;;;677836;29;1220;-88
2022/03/05 00:17:32;;;;;;;;;;;21.30;39.20;;;;;;677514;29;1236;-87
2022/03/05 00:17:53;;;;;;;;;;;21.30;39.30;;;;;;678117;29;1255;-88
2022/03/05 00:18:14;;;;;;;;;;;21.20;39.60;;;;;;680610;29;1242;-88
2022/03/05 00:18:35;;;;;;;;;;;21.30;40.70;;;;;;677807;29;1203;-88
2022/03/05 00:18:56;;;;;;;;;;;21.20;39.30;;;;;;678474;29;1140;-87
2022/03/05 00:19:16;;;;;;;;;;;21.30;39.60;;;;;;678281;29;1118;-90
2022/03/05 00:19:37;;;;;;;;;;;21.30;39.30;;;;;;678107;29;1203;-88
2022/03/05 00:19:57;;;;;;;;;;;21.30;40.50;;;;;;677776;29;1329;-89
2022/03/05 00:20:21;;;;;;;;;;;21.20;39.80;;;;;;677821;29;1304;-87
2022/03/05 00:20:42;;;;;;;;;;;21.30;39.40;;;;;;678370;29;1274;-88
2022/03/05 00:21:03;;;;;;;;;;;21.30;39.50;;;;;;681226;29;1377;-88
2022/03/05 00:21:25;;;;;;;;;;;21.20;39.70;;;;;;682579;29;1228;-87
2022/03/05 00:21:46;;;;;;;;;;;21.30;39.70;;;;;;683035;29;1252;-88
2022/03/05 00:22:06;;;;;;;;;;;21.30;39.70;;;;;;680722;29;1361;-88
2022/03/05 00:22:27;;;;;;;;;;;21.20;39.20;;;;;;677823;29;1161;-87
2022/03/05 00:22:47;;;;;;;;;;;21.30;39.40;;;;;;678350;29;1307;-89
2022/03/05 00:23:08;;;;;;;;;;;21.20;40.10;;;;;;680483;29;1437;-88
2022/03/05 00:23:29;;;;;;;;;;;21.20;40.50;;;;;;677824;29;871;-87
2022/03/05 00:23:49;;;;;;;;;;;21.20;40.10;;;;;;678017;29;1138;-87
2022/03/05 00:24:10;;;;;;;;;;;21.20;39.30;;;;;;680379;29;1349;-89
2022/03/05 00:24:30;;;;;;;;;;;21.20;40.80;;;;;;680763;29;1344;-87
2022/03/05 00:24:51;;;;;;;;;;;21.30;39.80;;;;;;680779;29;1373;-88
2022/03/05 00:25:12;;;;;;;;;;;21.40;39.80;;;;;;683117;29;1238;-87
2022/03/05 00:25:33;;;;;;;;;;;21.20;39.30;;;;;;680639;29;1914;-87
2022/03/05 00:25:53;;;;;;;;;;;21.20;39.60;;;;;;682807;29;1127;-88
2022/03/05 00:26:14;;;;;;;;;;;21.30;39.10;;;;;;677844;29;1199;-87
2022/03/05 00:26:34;;;;;;;;;;;21.20;39.40;;;;;;680350;29;1260;-88
2022/03/05 00:26:55;;;;;;;;;;;21.20;39.40;;;;;;680695;29;1237;-88
2022/03/05 00:27:16;;;;;;;;;;;21.20;39.70;;;;;;683006;29;1201;-87
2022/03/05 00:27:37;;;;;;;;;;;21.20;39.60;;;;;;683006;29;1175;-87
2022/03/05 00:27:58;;;;;;;;;;;21.20;39.40;;;;;;680447;29;1200;-87
2022/03/05 00:28:18;;;;;;;;;;;21.30;39.80;;;;;;677791;29;1116;-88
2022/03/05 00:28:39;;;;;;;;;;;21.20;40.00;;;;;;678146;29;1544;-88
2022/03/05 00:28:59;;;;;;;;;;;21.20;42.70;;;;;;680551;29;1152;-88
2022/03/05 00:29:20;;;;;;;;;;;21.30;42.70;;;;;;680859;29;1206;-89
2022/03/05 00:29:40;;;;;;;;;;;21.20;40.40;;;;;;680379;29;1109;-88
2022/03/05 00:30:01;;;;;;;;;;;21.30;42.70;;;;;;678042;29;1346;-88
2022/03/05 00:30:22;;;;;;;;;;;21.20;41.20;;;;;;677520;29;1208;-90
2022/03/05 00:30:42;;;;;;;;;;;21.30;40.00;;;;;;677482;29;1344;-87
2022/03/05 00:31:03;;;;;;;;;;;21.30;42.70;;;;;;677861;29;1171;-87
2022/03/05 00:31:24;;;;;;;;;;;21.30;40.60;;;;;;678216;29;1329;-87
2022/03/05 00:31:44;;;;;;;;;;;21.30;40.00;;;;;;682606;29;1302;-89
2022/03/05 00:32:05;;;;;;;;;;;21.20;39.60;;;;;;680450;29;1341;-88
2022/03/05 00:32:26;;;;;;;;;;;21.40;43.00;;;;;;677765;29;1175;-88
2022/03/05 00:32:47;;;;;;;;;;;21.20;40.70;;;;;;675700;29;797;-88
2022/03/05 00:33:08;;;;;;;;;;;21.20;39.60;;;;;;677855;29;1236;-88
2022/03/05 00:33:28;;;;;;;;;;;21.20;40.10;;;;;;675501;29;1128;-89
2022/03/05 00:33:49;;;;;;;;;;;21.20;39.50;;;;;;678136;29;1091;-88
2022/03/05 00:34:09;;;;;;;;;;;21.20;40.20;;;;;;678318;29;1204;-88
2022/03/05 00:34:30;;;;;;;;;;;21.30;39.60;;;;;;677817;29;1364;-89
2022/03/05 00:34:51;;;;;;;;;;;21.20;39.70;;;;;;677950;29;1226;-88
2022/03/05 00:35:11;;;;;;;;;;;21.20;39.00;;;;;;678189;29;1215;-88
2022/03/05 00:35:33;;;;;;;;;;;21.30;39.50;;;;;;680448;29;1364;-88
2022/03/05 00:35:53;;;;;;;;;;;21.20;43.00;;;;;;678133;29;1143;-89
2022/03/05 00:36:14;;;;;;;;;;;21.20;40.60;;;;;;678203;29;1209;-88
2022/03/05 00:36:36;;;;;;;;;;;21.30;39.80;;;;;;680485;29;870;-87
2022/03/05 00:36:56;;;;;;;;;;;21.20;40.10;;;;;;678275;29;1202;-88
2022/03/05 00:37:17;;;;;;;;;;;21.20;39.10;;;;;;680537;29;1266;-88
2022/03/05 00:37:37;;;;;;;;;;;21.20;42.10;;;;;;680757;29;1241;-88
2022/03/05 00:37:58;;;;;;;;;;;21.20;39.30;;;;;;680932;29;1220;-88
2022/03/05 00:38:19;;;;;;;;;;;21.30;39.10;;;;;;680492;29;1231;-90
2022/03/05 00:38:39;;;;;;;;;;;21.20;39.60;;;;;;680340;29;1171;-88
2022/03/05 00:39:00;;;;;;;;;;;21.20;41.80;;;;;;680418;29;1114;-88
2022/03/05 00:39:21;;;;;;;;;;;21.20;41.70;;;;;;680459;29;1143;-88
2022/03/05 00:39:41;;;;;;;;;;;21.30;39.10;;;;;;680404;29;1531;-88
2022/03/05 00:40:02;;;;;;;;;;;21.30;39.60;;;;;;680537;29;1128;-88
2022/03/05 00:40:23;;;;;;;;;;;21.20;38.70;;;;;;677814;29;1356;-88
2022/03/05 00:40:44;;;;;;;;;;;21.20;39.00;;;;;;675240;29;1214;-88
2022/03/05 00:41:06;;;;;;;;;;;21.20;39.00;;;;;;675508;29;1371;-89
2022/03/05 00:41:27;;;;;;;;;;;21.20;40.20;;;;;;678496;29;1283;-88
2022/03/05 00:41:48;;;;;;;;;;;21.20;42.80;;;;;;680374;29;1241;-89
2022/03/05 00:42:08;;;;;;;;;;;21.20;39.10;;;;;;677407;29;1491;-88
2022/03/05 00:42:29;;;;;;;;;;;21.30;40.20;;;;;;678330;29;1226;-88
2022/03/05 00:42:49;;;;;;;;;;;21.20;39.10;;;;;;680314;29;1240;-88
2022/03/05 00:43:10;;;;;;;;;;;21.20;40.70;;;;;;680468;29;1212;-89
2022/03/05 00:43:31;;;;;;;;;;;21.20;39.60;;;;;;680668;29;1313;-89
2022/03/05 00:43:51;;;;;;;;;;;21.20;40.00;;;;;;680720;29;1100;-88
2022/03/05 00:44:12;;;;;;;;;;;21.20;41.70;;;;;;680454;29;875;-87
2022/03/05 00:44:32;;;;;;;;;;;21.20;40.30;;;;;;680507;29;1126;-88
2022/03/05 00:44:53;;;;;;;;;;;21.20;39.50;;;;;;680782;29;1315;-88
2022/03/05 00:45:14;;;;;;;;;;;21.30;39.90;;;;;;680365;29;1186;-88
2022/03/05 00:45:36;;;;;;;;;;;21.20;41.30;;;;;;680368;29;1956;-88
2022/03/05 00:45:56;;;;;;;;;;;21.20;40.10;;;;;;680475;29;1132;-88
2022/03/05 00:46:17;;;;;;;;;;;21.20;41.30;;;;;;680788;29;1167;-88
2022/03/05 00:46:38;;;;;;;;;;;21.20;39.00;;;;;;683076;29;1296;-88
2022/03/05 00:46:58;;;;;;;;;;;21.20;39.40;;;;;;680301;29;1148;-87
2022/03/05 00:47:19;;;;;;;;;;;21.20;39.10;;;;;;677105;29;1275;-88
2022/03/05 00:47:39;;;;;;;;;;;21.20;39.30;;;;;;675197;29;1223;-87
2022/03/05 00:48:00;;;;;;;;;;;21.20;39.60;;;;;;672902;29;1192;-87
2022/03/05 00:48:21;;;;;;;;;;;21.20;39.70;;;;;;672826;29;1168;-88
2022/03/05 00:48:41;;;;;;;;;;;21.20;38.80;;;;;;677608;29;1235;-88
2022/03/05 00:49:02;;;;;;;;;;;21.20;39.10;;;;;;678042;29;1305;-88
2022/03/05 00:49:22;;;;;;;;;;;21.20;39.30;;;;;;677958;29;1207;-87
2022/03/05 00:49:43;;;;;;;;;;;21.20;40.40;;;;;;677772;29;1283;-87
2022/03/05 00:50:05;;;;;;;;;;;21.20;39.40;;;;;;675163;29;1236;-87
2022/03/05 00:50:26;;;;;;;;;;;21.20;38.70;;;;;;675638;29;1231;-87
2022/03/05 00:50:48;;;;;;;;;;;21.20;40.30;;;;;;678232;29;1382;-87
2022/03/05 00:51:08;;;;;;;;;;;21.20;40.30;;;;;;681068;29;1174;-88
2022/03/05 00:51:29;;;;;;;;;;;20.80;39.30;;;;;;683673;28;1209;-87
2022/03/05 00:51:50;;;;;;;;;;;21.20;39.50;;;;;;683075;29;1365;-87
2022/03/05 00:52:10;;;;;;;;;;;21.20;38.70;;;;;;680426;29;1103;-87
2022/03/05 00:52:31;;;;;;;;;;;21.20;39.10;;;;;;680449;29;1192;-88
2022/03/05 00:52:52;;;;;;;;;;;21.20;38.50;;;;;;680488;29;1235;-87
2022/03/05 00:53:16;;;;;;;;;;;21.20;40.20;;;;;;678088;29;1485;-88
2022/03/05 00:53:36;;;;;;;;;;;21.20;41.30;;;;;;680433;29;1242;-87
2022/03/05 00:53:57;;;;;;;;;;;21.20;39.20;;;;;;681232;29;1163;-88
2022/03/05 00:54:18;;;;;;;;;;;20.00;38.40;;;;;;680470;29;1174;-87
2022/03/05 00:54:39;;;;;;;;;;;21.20;38.80;;;;;;677797;29;1071;-87
2022/03/05 00:54:59;;;;;;;;;;;21.20;40.60;;;;;;675265;29;1159;-87
2022/03/05 00:55:20;;;;;;;;;;;21.10;39.60;;;;;;675647;29;781;-88
2022/03/05 00:55:41;;;;;;;;;;;21.20;40.10;;;;;;678178;29;1389;-87
2022/03/05 00:56:01;;;;;;;;;;;21.20;41.20;;;;;;678109;29;1209;-88
2022/03/05 00:56:22;;;;;;;;;;;21.20;41.10;;;;;;680742;29;1195;-86
2022/03/05 00:56:42;;;;;;;;;;;21.20;39.10;;;;;;683166;29;1202;-87
2022/03/05 00:57:03;;;;;;;;;;;21.20;39.10;;;;;;680407;29;1252;-87
2022/03/05 00:57:23;;;;;;;;;;;21.20;39.70;;;;;;680317;29;1267;-88
2022/03/05 00:57:44;;;;;;;;;;;21.20;38.70;;;;;;680683;29;1255;-87
2022/03/05 00:58:04;;;;;;;;;;;21.20;39.50;;;;;;680374;29;1229;-87
2022/03/05 00:58:25;;;;;;;;;;;21.20;39.30;;;;;;680451;29;1280;-87
2022/03/05 00:58:46;;;;;;;;;;;21.20;39.00;;;;;;678048;29;1088;-87
2022/03/05 00:59:06;;;;;;;;;;;21.20;39.60;;;;;;680641;29;1150;-87
2022/03/05 00:59:27;;;;;;;;;;;21.20;39.20;;;;;;680406;29;1218;-87
2022/03/05 00:59:47;;;;;;;;;;;21.20;39.80;;;;;;680438;29;1167;-87
2022/03/05 01:00:10;;;;;;;;;;;21.10;41.40;;;;;;680504;29;1189;-88
2022/03/05 01:00:31;;;;;;;;;;;21.20;39.20;;;;;;681118;29;1293;-87
2022/03/05 01:00:52;;;;;;;;;;;21.20;39.30;;;;;;680416;29;1196;-87
2022/03/05 01:01:13;;;;;;;;;;;21.20;40.40;;;;;;680453;29;1362;-88
2022/03/05 01:01:33;;;;;;;;;;;21.20;39.90;;;;;;677805;29;1213;-87
2022/03/05 01:01:54;;;;;;;;;;;21.20;39.00;;;;;;675852;29;1239;-87
2022/03/05 01:02:15;;;;;;;;;;;21.20;38.90;;;;;;678204;29;1353;-88
2022/03/05 01:02:35;;;;;;;;;;;21.20;39.00;;;;;;680734;29;1349;-87
2022/03/05 01:02:56;;;;;;;;;;;21.10;39.70;;;;;;680368;29;1301;-88
2022/03/05 01:03:17;;;;;;;;;;;21.10;39.00;;;;;;680336;29;1285;-88
2022/03/05 01:03:37;;;;;;;;;;;21.20;39.10;;;;;;677766;29;1329;-87
2022/03/05 01:03:58;;;;;;;;;;;21.20;39.10;;;;;;680302;29;1224;-87
2022/03/05 01:04:19;;;;;;;;;;;21.10;39.10;;;;;;678044;29;1203;-87
2022/03/05 01:04:39;;;;;;;;;;;21.10;40.00;;;;;;678094;29;1344;-88
2022/03/05 01:05:00;;;;;;;;;;;21.10;38.60;;;;;;680489;29;1198;-87
2022/03/05 01:05:20;;;;;;;;;;;21.20;38.80;;;;;;680733;29;1341;-88
2022/03/05 01:05:41;;;;;;;;;;;21.20;39.70;;;;;;680380;29;1954;-88
2022/03/05 01:06:01;;;;;;;;;;;21.20;39.50;;;;;;680804;29;1207;-88
2022/03/05 01:06:22;;;;;;;;;;;21.10;39.20;;;;;;680289;29;1095;-87
2022/03/05 01:06:43;;;;;;;;;;;21.20;38.80;;;;;;678080;29;1345;-88
2022/03/05 01:07:03;;;;;;;;;;;21.20;39.10;;;;;;677868;29;1408;-87
2022/03/05 01:07:24;;;;;;;;;;;21.10;39.70;;;;;;678063;29;1123;-88
2022/03/05 01:07:44;;;;;;;;;;;21.20;39.60;;;;;;680412;29;1440;-87
2022/03/05 01:08:05;;;;;;;;;;;21.10;39.20;;;;;;680656;29;1087;-88
2022/03/05 01:08:26;;;;;;;;;;;21.20;39.00;;;;;;680460;29;1241;-88
2022/03/05 01:08:46;;;;;;;;;;;21.10;39.50;;;;;;677803;29;1198;-88
2022/03/05 01:09:07;;;;;;;;;;;21.10;39.60;;;;;;675479;29;1221;-87
2022/03/05 01:09:30;;;;;;;;;;;21.20;40.10;;;;;;677639;29;1379;-87
2022/03/05 01:09:51;;;;;;;;;;;21.20;38.70;;;;;;678570;29;1145;-88
2022/03/05 01:10:12;;;;;;;;;;;21.20;40.60;;;;;;681278;29;1367;-88
2022/03/05 01:10:33;;;;;;;;;;;21.20;40.00;;;;;;681161;29;1431;-87
2022/03/05 01:10:53;;;;;;;;;;;21.10;41.10;;;;;;680147;29;1353;-88
2022/03/05 01:11:16;;;;;;;;;;;21.20;40.00;;;;;;681094;29;1296;-88
2022/03/05 01:11:37;;;;;;;;;;;21.20;39.60;;;;;;683096;29;1131;-87
2022/03/05 01:11:57;;;;;;;;;;;21.20;39.80;;;;;;682980;29;1133;-88
2022/03/05 01:12:18;;;;;;;;;;;21.20;40.00;;;;;;683513;28;1344;-88
2022/03/05 01:12:39;;;;;;;;;;;21.20;39.70;;;;;;682628;29;1369;-88
2022/03/05 01:12:59;;;;;;;;;;;21.20;39.10;;;;;;683067;29;1206;-87
2022/03/05 01:13:20;;;;;;;;;;;21.10;39.50;;;;;;680353;29;1148;-87
2022/03/05 01:13:41;;;;;;;;;;;21.20;39.70;;;;;;680433;29;1339;-89
2022/03/05 01:14:01;;;;;;;;;;;21.20;39.20;;;;;;680457;29;1081;-88
2022/03/05 01:14:22;;;;;;;;;;;21.20;41.20;;;;;;680638;29;1354;-87
2022/03/05 01:14:42;;;;;;;;;;;21.20;41.10;;;;;;680442;29;1134;-88
2022/03/05 01:15:04;;;;;;;;;;;21.20;41.20;;;;;;677761;29;1133;-87
2022/03/05 01:15:24;;;;;;;;;;;21.10;40.10;;;;;;675783;29;1112;-87
2022/03/05 01:15:45;;;;;;;;;;;21.10;40.00;;;;;;677702;29;1329;-87
2022/03/05 01:16:06;;;;;;;;;;;21.20;41.00;;;;;;678093;29;1194;-88
2022/03/05 01:16:26;;;;;;;;;;;21.20;39.60;;;;;;678032;29;1214;-88
2022/03/05 01:16:47;;;;;;;;;;;21.10;40.30;;;;;;680359;29;1191;-87
2022/03/05 01:17:07;;;;;;;;;;;21.30;41.00;;;;;;680361;29;1245;-87
2022/03/05 01:17:28;;;;;;;;;;;21.20;40.30;;;;;;677793;29;1237;-87
2022/03/05 01:17:48;;;;;;;;;;;21.10;40.10;;;;;;680711;29;1310;-87
2022/03/05 01:18:09;;;;;;;;;;;21.20;39.90;;;;;;683126;28;1214;-88
2022/03/05 01:18:29;;;;;;;;;;;21.10;39.80;;;;;;680581;29;1315;-88
2022/03/05 01:18:50;;;;;;;;;;;21.10;39.90;;;;;;680344;29;1238;-87
2022/03/05 01:19:10;;;;;;;;;;;21.20;40.40;;;;;;680306;29;1240;-87
2022/03/05 01:19:31;;;;;;;;;;;21.60;40.20;;;;;;680290;29;1190;-88
2022/03/05 01:19:52;;;;;;;;;;;21.10;40.90;;;;;;680427;29;1163;-88
2022/03/05 01:20:12;;;;;;;;;;;21.30;41.00;;;;;;680596;29;1224;-87
2022/03/05 01:20:33;;;;;;;;;;;18.80;40.60;;;;;;680345;29;1120;-87
2022/03/05 01:20:53;;;;;;;;;;;21.20;39.60;;;;;;677784;29;1376;-88
2022/03/05 01:21:14;;;;;;;;;;;21.20;39.20;;;;;;678012;29;1371;-88
2022/03/05 01:21:36;;;;;;;;;;;21.20;39.10;;;;;;680334;29;1337;-88
2022/03/05 01:21:56;;;;;;;;;;;21.20;39.60;;;;;;680366;29;1127;-87
2022/03/05 01:22:17;;;;;;;;;;;21.20;41.30;;;;;;680864;29;1291;-87
2022/03/05 01:22:37;;;;;;;;;;;21.20;39.50;;;;;;680801;29;1341;-88
2022/03/05 01:22:58;;;;;;;;;;;21.20;39.70;;;;;;680373;29;1257;-87
2022/03/05 01:23:19;;;;;;;;;;;21.20;39.60;;;;;;680458;29;1447;-87
2022/03/05 01:23:39;;;;;;;;;;;21.30;40.20;;;;;;680881;29;1116;-87
2022/03/05 01:24:00;;;;;;;;;;;21.20;39.80;;;;;;681089;29;1280;-87
2022/03/05 01:24:20;;;;;;;;;;;21.30;40.10;;;;;;683663;28;1476;-87
2022/03/05 01:24:41;;;;;;;;;;;21.20;40.60;;;;;;683535;29;1158;-88
2022/03/05 01:25:02;;;;;;;;;;;21.10;39.50;;;;;;680471;29;1279;-87
2022/03/05 01:25:23;;;;;;;;;;;21.30;40.70;;;;;;680728;29;1366;-87
2022/03/05 01:25:44;;;;;;;;;;;21.10;40.30;;;;;;680701;29;1907;-87
2022/03/05 01:26:04;;;;;;;;;;;21.20;39.30;;;;;;678284;29;1083;-87
2022/03/05 01:26:29;;;;;;;;;;;21.20;38.90;;;;;;678628;29;1171;-87
2022/03/05 01:26:50;;;;;;;;;;;21.20;39.70;;;;;;678224;29;1097;-87
2022/03/05 01:27:10;;;;;;;;;;;21.20;39.50;;;;;;679005;29;1230;-87
2022/03/05 01:27:31;;;;;;;;;;;21.20;39.50;;;;;;677363;29;1142;-86
2022/03/05 01:27:51;;;;;;;;;;;21.80;41.70;;;;;;676414;29;1383;-87
2022/03/05 01:28:12;;;;;;;;;;;21.20;41.60;;;;;;676369;29;1219;-87
2022/03/05 01:28:33;;;;;;;;;;;21.10;40.10;;;;;;678565;29;1400;-87
2022/03/05 01:28:53;;;;;;;;;;;21.30;39.60;;;;;;678240;29;1335;-87
2022/03/05 01:29:14;;;;;;;;;;;21.20;39.80;;;;;;678315;29;1252;-88
2022/03/05 01:29:34;;;;;;;;;;;21.20;39.20;;;;;;675878;29;1234;-87
2022/03/05 01:29:55;;;;;;;;;;;21.20;38.80;;;;;;681159;28;1253;-87
2022/03/05 01:30:15;;;;;;;;;;;21.20;39.50;;;;;;683704;28;800;-87
2022/03/05 01:30:36;;;;;;;;;;;21.20;41.20;;;;;;683234;29;1139;-87
2022/03/05 01:30:57;;;;;;;;;;;21.20;39.80;;;;;;680893;29;1254;-87
2022/03/05 01:31:18;;;;;;;;;;;21.20;40.10;;;;;;680749;29;1311;-87
2022/03/05 01:31:38;;;;;;;;;;;21.20;39.00;;;;;;680994;29;1120;-87
2022/03/05 01:31:59;;;;;;;;;;;21.20;39.20;;;;;;680886;29;1229;-86
2022/03/05 01:32:19;;;;;;;;;;;21.20;39.10;;;;;;680817;29;1349;-87
2022/03/05 01:32:40;;;;;;;;;;;21.20;39.30;;;;;;678149;29;1179;-87
2022/03/05 01:33:00;;;;;;;;;;;21.20;39.90;;;;;;675674;29;1127;-87
2022/03/05 01:33:21;;;;;;;;;;;21.20;39.80;;;;;;675831;29;1307;-88
2022/03/05 01:33:42;;;;;;;;;;;21.20;39.00;;;;;;678430;29;1207;-88
2022/03/05 01:34:02;;;;;;;;;;;21.10;38.90;;;;;;678163;29;1202;-87
2022/03/05 01:34:23;;;;;;;;;;;20.70;38.60;;;;;;678499;29;1256;-87
2022/03/05 01:34:43;;;;;;;;;;;21.20;39.30;;;;;;678504;29;1334;-87
2022/03/05 01:35:04;;;;;;;;;;;21.10;39.40;;;;;;678466;29;1077;-87
2022/03/05 01:35:25;;;;;;;;;;;21.20;38.40;;;;;;680827;29;1300;-87
2022/03/05 01:35:46;;;;;;;;;;;21.10;39.30;;;;;;680664;29;1316;-87
2022/03/05 01:36:06;;;;;;;;;;;21.20;38.60;;;;;;681158;29;1118;-86
2022/03/05 01:36:27;;;;;;;;;;;21.10;39.20;;;;;;683529;29;1093;-87
2022/03/05 01:36:47;;;;;;;;;;;21.10;39.00;;;;;;681034;29;1209;-87
2022/03/05 01:37:08;;;;;;;;;;;21.20;39.30;;;;;;680866;29;1226;-87
2022/03/05 01:37:28;;;;;;;;;;;21.10;38.80;;;;;;677490;29;1371;-87
2022/03/05 01:37:49;;;;;;;;;;;21.10;38.70;;;;;;675758;29;1111;-87
2022/03/05 01:38:10;;;;;;;;;;;21.10;39.60;;;;;;678214;29;1271;-86
2022/03/05 01:38:30;;;;;;;;;;;21.10;38.30;;;;;;675767;29;1215;-87
2022/03/05 01:38:51;;;;;;;;;;;21.20;38.50;;;;;;675855;29;1351;-87
2022/03/05 01:39:12;;;;;;;;;;;21.10;38.60;;;;;;678487;29;1214;-87
2022/03/05 01:39:32;;;;;;;;;;;21.10;39.50;;;;;;678194;29;1082;-87
2022/03/05 01:39:53;;;;;;;;;;;21.10;39.40;;;;;;678346;29;1148;-86
2022/03/05 01:40:13;;;;;;;;;;;21.20;40.60;;;;;;678439;29;1084;-87
2022/03/05 01:40:34;;;;;;;;;;;21.10;39.20;;;;;;681013;29;1129;-87
2022/03/05 01:40:54;;;;;;;;;;;21.10;39.00;;;;;;680498;29;1084;-87
2022/03/05 01:41:15;;;;;;;;;;;21.10;38.60;;;;;;678544;29;1163;-87
2022/03/05 01:41:37;;;;;;;;;;;21.10;38.30;;;;;;683082;29;1291;-87
2022/03/05 01:41:58;;;;;;;;;;;21.10;39.00;;;;;;681201;28;1193;-87
2022/03/05 01:42:23;;;;;;;;;;;21.10;38.60;;;;;;683477;28;1256;-87
2022/03/05 01:42:43;;;;;;;;;;;21.10;39.70;;;;;;684446;28;1422;-87
2022/03/05 01:43:04;;;;;;;;;;;21.10;38.20;;;;;;683017;29;969;-87
2022/03/05 01:43:24;;;;;;;;;;;21.10;38.50;;;;;;680648;29;1081;-87
2022/03/05 01:43:48;;;;;;;;;;;21.10;38.60;;;;;;680093;29;890;-87
2022/03/05 01:44:09;;;;;;;;;;;21.10;38.00;;;;;;679448;29;1250;-87
2022/03/05 01:44:30;;;;;;;;;;;21.10;39.70;;;;;;680757;29;1421;-87
2022/03/05 01:44:51;;;;;;;;;;;21.10;40.30;;;;;;681511;29;1234;-87
2022/03/05 01:45:11;;;;;;;;;;;21.10;38.50;;;;;;684160;28;1098;-88
2022/03/05 01:45:32;;;;;;;;;;;21.10;39.50;;;;;;686222;28;879;-87
2022/03/05 01:45:53;;;;;;;;;;;21.20;39.60;;;;;;683271;29;1914;-87
2022/03/05 01:46:13;;;;;;;;;;;21.10;41.50;;;;;;683436;29;1279;-87
2022/03/05 01:46:35;;;;;;;;;;;21.10;40.90;;;;;;681175;29;1249;-87
2022/03/05 01:47:00;;;;;;;;;;;21.10;38.70;;;;;;683428;29;1339;-86
2022/03/05 01:47:20;;;;;;;;;;;21.00;38.70;;;;;;680881;29;1131;-87
2022/03/05 01:47:41;;;;;;;;;;;21.10;39.10;;;;;;681930;29;1108;-87
2022/03/05 01:48:02;;;;;;;;;;;21.10;38.50;;;;;;680656;29;1247;-87
2022/03/05 01:48:23;;;;;;;;;;;21.10;38.40;;;;;;678177;29;1112;-87
2022/03/05 01:48:43;;;;;;;;;;;21.10;40.20;;;;;;678222;29;1311;-87
2022/03/05 01:49:09;;;;;;;;;;;21.10;40.20;;;;;;678537;29;1211;-87
2022/03/05 01:49:29;;;;;;;;;;;21.10;38.10;;;;;;679220;29;1187;-88
2022/03/05 01:49:50;;;;;;;;;;;21.20;40.00;;;;;;681691;29;1183;-87
2022/03/05 01:50:11;;;;;;;;;;;21.00;40.70;;;;;;680925;29;1344;-87
2022/03/05 01:50:32;;;;;;;;;;;21.00;43.10;;;;;;678269;29;1137;-88
2022/03/05 01:50:53;;;;;;;;;;;21.10;39.20;;;;;;675891;29;1238;-87
2022/03/05 01:51:13;;;;;;;;;;;20.60;41.90;;;;;;676434;29;1274;-87
2022/03/05 01:51:34;;;;;;;;;;;20.10;40.80;;;;;;678967;29;1182;-87
2022/03/05 01:51:55;;;;;;;;;;;21.00;40.60;;;;;;681807;29;973;-87
2022/03/05 01:52:15;;;;;;;;;;;21.10;39.10;;;;;;684438;28;1205;-87
2022/03/05 01:52:36;;;;;;;;;;;21.10;38.40;;;;;;683921;29;1418;-87
2022/03/05 01:52:57;;;;;;;;;;;21.10;38.50;;;;;;684147;29;1185;-87
2022/03/05 01:53:17;;;;;;;;;;;21.10;38.90;;;;;;681750;29;1273;-87
2022/03/05 01:53:38;;;;;;;;;;;21.10;40.30;;;;;;679042;29;1261;-87
2022/03/05 01:53:58;;;;;;;;;;;21.00;38.80;;;;;;679315;29;1245;-87
2022/03/05 01:54:21;;;;;;;;;;;21.00;38.70;;;;;;677088;29;1195;-87
2022/03/05 01:54:42;;;;;;;;;;;21.10;39.30;;;;;;678423;29;1088;-87
2022/03/05 01:55:03;;;;;;;;;;;21.00;40.00;;;;;;681985;29;1322;-88
2022/03/05 01:55:24;;;;;;;;;;;21.10;38.80;;;;;;684000;29;1106;-88
2022/03/05 01:55:45;;;;;;;;;;;21.10;38.70;;;;;;684577;29;1108;-88
2022/03/05 01:56:05;;;;;;;;;;;21.00;38.80;;;;;;685752;29;1496;-88
2022/03/05 01:56:27;;;;;;;;;;;21.00;38.90;;;;;;686070;29;1407;-88
2022/03/05 01:56:48;;;;;;;;;;;21.10;38.70;;;;;;682774;29;1166;-88
2022/03/05 01:57:10;;;;;;;;;;;21.00;38.60;;;;;;678640;29;1368;-87
2022/03/05 01:57:31;;;;;;;;;;;21.00;38.60;;;;;;678040;29;1333;-88
2022/03/05 01:57:52;;;;;;;;;;;21.10;38.90;;;;;;678208;29;1360;-87
2022/03/05 01:58:12;;;;;;;;;;;21.10;38.00;;;;;;678951;29;1186;-87
2022/03/05 01:58:33;;;;;;;;;;;21.00;38.30;;;;;;678622;29;1104;-87
2022/03/05 01:58:54;;;;;;;;;;;21.10;40.00;;;;;;681476;29;824;-87
2022/03/05 01:59:15;;;;;;;;;;;21.20;38.40;;;;;;681133;29;1347;-87
2022/03/05 01:59:35;;;;;;;;;;;21.00;39.60;;;;;;680855;29;1069;-87
2022/03/05 01:59:56;;;;;;;;;;;21.10;39.10;;;;;;680736;29;1199;-87
2022/03/05 02:00:17;;;;;;;;;;;21.10;39.40;;;;;;680866;29;1243;-87
2022/03/05 02:00:38;;;;;;;;;;;21.00;37.90;;;;;;680805;29;1431;-87
2022/03/05 02:00:59;;;;;;;;;;;21.10;41.40;;;;;;680741;29;1259;-88
2022/03/05 02:01:20;;;;;;;;;;;21.10;38.10;;;;;;681149;29;1136;-87
2022/03/05 02:01:41;;;;;;;;;;;21.10;38.70;;;;;;680797;29;1113;-88
2022/03/05 02:02:02;;;;;;;;;;;21.10;38.80;;;;;;680770;29;1317;-87
2022/03/05 02:02:22;;;;;;;;;;;21.00;38.60;;;;;;682833;29;1573;-88
2022/03/05 02:02:43;;;;;;;;;;;21.00;38.20;;;;;;683447;29;752;-87
2022/03/05 02:03:04;;;;;;;;;;;21.00;38.70;;;;;;683844;28;1122;-87
2022/03/05 02:03:25;;;;;;;;;;;21.00;39.40;;;;;;683502;29;1262;-87
2022/03/05 02:03:45;;;;;;;;;;;21.00;39.60;;;;;;680751;29;1333;-87
2022/03/05 02:04:06;;;;;;;;;;;21.00;39.00;;;;;;681024;29;1265;-88
2022/03/05 02:04:26;;;;;;;;;;;21.00;38.50;;;;;;680727;29;1258;-87
2022/03/05 02:04:47;;;;;;;;;;;21.00;38.80;;;;;;677851;29;1073;-87